createdAt,value
2019-02-25T00:00:18.720Z,8.00
2019-02-25T00:01:18.705Z,8.00
2019-02-25T00:02:18.713Z,8.00
2019-02-25T00:03:18.722Z,8.00
2019-02-25T00:04:18.674Z,8.00
2019-02-25T00:05:18.662Z,8.00
2019-02-25T00:06:18.654Z,8.00
2019-02-25T00:07:18.644Z,8.00
2019-02-25T00:08:18.654Z,8.00
2019-02-25T00:09:18.691Z,8.00
2019-02-25T00:10:18.611Z,8.00
2019-02-25T00:11:18.603Z,8.00
2019-02-25T00:12:18.589Z,8.00
2019-02-25T00:13:18.574Z,8.00
2019-02-25T00:14:31.150Z,8.00
2019-02-25T00:15:18.554Z,8.00
2019-02-25T00:16:18.544Z,8.00
2019-02-25T00:17:19.100Z,8.00
2019-02-25T00:18:18.524Z,8.00
2019-02-25T00:19:18.522Z,8.00
2019-02-25T00:20:18.583Z,8.00
2019-02-25T00:21:18.493Z,8.00
2019-02-25T00:22:18.490Z,8.00
2019-02-25T00:23:18.465Z,8.00
2019-02-25T00:24:18.459Z,8.00
2019-02-25T00:25:18.443Z,8.00
2019-02-25T00:26:18.453Z,8.00
2019-02-25T00:27:18.435Z,8.00
2019-02-25T00:28:18.416Z,8.00
2019-02-25T00:29:18.403Z,8.00
2019-02-25T00:30:18.389Z,8.00
2019-02-25T00:31:18.377Z,8.00
2019-02-25T00:32:18.391Z,8.00
2019-02-25T00:33:18.371Z,8.00
2019-02-25T00:34:18.351Z,8.00
2019-02-25T00:35:18.343Z,8.00
2019-02-25T00:36:18.328Z,8.00
2019-02-25T00:37:18.318Z,8.00
2019-02-25T00:38:18.349Z,8.00
2019-02-25T00:39:18.319Z,8.00
2019-02-25T00:40:18.286Z,8.00
2019-02-25T00:41:18.278Z,8.00
2019-02-25T00:42:18.272Z,8.00
2019-02-25T00:43:18.248Z,8.00
2019-02-25T00:44:18.276Z,8.00
2019-02-25T00:45:29.617Z,8.00
2019-02-25T00:46:18.221Z,8.00
2019-02-25T00:47:18.210Z,8.00
2019-02-25T00:48:18.198Z,8.00
2019-02-25T00:49:18.187Z,8.00
2019-02-25T00:50:18.363Z,8.00
2019-02-25T00:51:18.164Z,8.00
2019-02-25T00:52:18.154Z,8.00
2019-02-25T00:53:18.163Z,8.00
2019-02-25T00:54:18.135Z,8.00
2019-02-25T00:55:18.121Z,8.00
2019-02-25T00:56:18.146Z,8.00
2019-02-25T00:57:18.107Z,8.00
2019-02-25T00:58:18.101Z,8.00
2019-02-25T00:59:18.083Z,8.00
2019-02-25T01:00:18.104Z,8.00
2019-02-25T01:01:18.054Z,8.00
2019-02-25T01:02:18.082Z,8.00
2019-02-25T01:03:18.034Z,8.00
2019-02-25T01:04:18.049Z,8.00
2019-02-25T01:05:18.010Z,8.00
2019-02-25T01:06:17.999Z,8.00
2019-02-25T01:07:18.029Z,8.00
2019-02-25T01:08:18.024Z,8.00
2019-02-25T01:09:17.966Z,8.00
2019-02-25T01:10:17.986Z,8.00
2019-02-25T01:11:17.945Z,8.00
2019-02-25T01:12:17.936Z,8.00
2019-02-25T01:13:17.925Z,8.00
2019-02-25T01:14:17.955Z,8.00
2019-02-25T01:15:17.917Z,8.00
2019-02-25T01:16:29.650Z,8.00
2019-02-25T01:17:17.880Z,8.00
2019-02-25T01:18:17.874Z,8.00
2019-02-25T01:19:17.864Z,8.00
2019-02-25T01:20:17.888Z,8.00
2019-02-25T01:21:17.865Z,8.00
2019-02-25T01:22:17.825Z,8.00
2019-02-25T01:23:18.647Z,8.00
2019-02-25T01:24:17.834Z,8.00
2019-02-25T01:25:17.801Z,8.00
2019-02-25T01:26:17.817Z,8.00
2019-02-25T01:27:17.773Z,8.00
2019-02-25T01:28:17.765Z,8.00
2019-02-25T01:29:17.765Z,8.00
2019-02-25T01:30:17.744Z,8.00
2019-02-25T01:31:17.731Z,8.00
2019-02-25T01:32:17.732Z,8.00
2019-02-25T01:33:17.719Z,8.00
2019-02-25T01:34:17.702Z,8.00
2019-02-25T01:35:17.696Z,8.00
2019-02-25T01:36:17.675Z,8.00
2019-02-25T01:37:17.682Z,8.00
2019-02-25T01:38:17.659Z,8.00
2019-02-25T01:39:17.641Z,8.00
2019-02-25T01:40:17.638Z,8.00
2019-02-25T01:41:17.644Z,8.00
2019-02-25T01:42:17.610Z,8.00
2019-02-25T01:43:17.637Z,8.00
2019-02-25T01:44:17.587Z,8.00
2019-02-25T01:45:17.578Z,8.00
2019-02-25T01:46:17.570Z,8.00
2019-02-25T01:47:28.731Z,8.00
2019-02-25T01:48:17.549Z,8.00
2019-02-25T01:49:17.572Z,8.00
2019-02-25T01:50:17.526Z,8.00
2019-02-25T01:51:17.516Z,8.00
2019-02-25T01:52:17.513Z,8.00
2019-02-25T01:53:17.494Z,8.00
2019-02-25T01:54:17.478Z,8.00
2019-02-25T01:55:17.518Z,8.00
2019-02-25T01:56:17.460Z,8.00
2019-02-25T01:57:17.450Z,8.00
2019-02-25T01:58:17.438Z,8.00
2019-02-25T01:59:17.425Z,8.00
2019-02-25T02:00:17.446Z,8.00
2019-02-25T02:01:17.411Z,8.00
2019-02-25T02:02:17.398Z,8.00
2019-02-25T02:03:17.386Z,8.00
2019-02-25T02:04:17.375Z,8.00
2019-02-25T02:05:17.363Z,8.00
2019-02-25T02:06:17.399Z,8.00
2019-02-25T02:07:17.340Z,8.00
2019-02-25T02:08:17.328Z,8.00
2019-02-25T02:09:17.315Z,8.00
2019-02-25T02:10:17.310Z,8.00
2019-02-25T02:11:17.300Z,8.00
2019-02-25T02:12:17.472Z,8.00
2019-02-25T02:13:17.271Z,8.00
2019-02-25T02:14:17.260Z,8.00
2019-02-25T02:15:17.316Z,8.00
2019-02-25T02:16:17.239Z,8.00
2019-02-25T02:17:17.229Z,8.00
2019-02-25T02:18:27.260Z,8.00
2019-02-25T02:19:17.212Z,8.00
2019-02-25T02:20:17.198Z,8.00
2019-02-25T02:21:17.188Z,8.00
2019-02-25T02:22:17.180Z,8.00
2019-02-25T02:23:17.177Z,8.00
2019-02-25T02:24:17.195Z,8.00
2019-02-25T02:25:17.141Z,8.00
2019-02-25T02:26:17.150Z,8.00
2019-02-25T02:27:17.124Z,8.00
2019-02-25T02:28:17.112Z,8.00
2019-02-25T02:29:17.219Z,8.00
2019-02-25T02:30:17.125Z,8.00
2019-02-25T02:31:17.092Z,8.00
2019-02-25T02:32:17.069Z,8.00
2019-02-25T02:33:17.054Z,8.00
2019-02-25T02:34:17.045Z,8.00
2019-02-25T02:35:17.039Z,8.00
2019-02-25T02:36:17.035Z,8.00
2019-02-25T02:37:17.021Z,8.00
2019-02-25T02:38:17.001Z,8.00
2019-02-25T02:39:16.992Z,8.00
2019-02-25T02:40:16.984Z,8.00
2019-02-25T02:41:17.003Z,8.00
2019-02-25T02:42:16.954Z,8.00
2019-02-25T02:43:16.960Z,8.00
2019-02-25T02:44:16.937Z,8.00
2019-02-25T02:45:16.926Z,8.00
2019-02-25T02:46:16.921Z,8.00
2019-02-25T02:47:16.936Z,8.00
2019-02-25T02:48:16.895Z,8.00
2019-02-25T02:49:27.594Z,8.00
2019-02-25T02:50:16.872Z,8.00
2019-02-25T02:51:16.864Z,8.00
2019-02-25T02:52:16.847Z,8.00
2019-02-25T02:53:16.874Z,8.00
2019-02-25T02:54:16.841Z,8.00
2019-02-25T02:55:16.819Z,8.00
2019-02-25T02:56:16.803Z,8.00
2019-02-25T02:57:16.802Z,8.00
2019-02-25T02:58:16.788Z,8.00
2019-02-25T02:59:16.789Z,8.00
2019-02-25T03:00:16.763Z,8.00
2019-02-25T03:01:16.754Z,8.00
2019-02-25T03:02:16.759Z,8.00
2019-02-25T03:03:16.731Z,8.00
2019-02-25T03:04:16.719Z,8.00
2019-02-25T03:05:16.752Z,8.00
2019-02-25T03:06:16.696Z,8.00
2019-02-25T03:07:16.685Z,8.00
2019-02-25T03:08:16.680Z,8.00
2019-02-25T03:09:16.679Z,8.00
2019-02-25T03:10:16.658Z,8.00
2019-02-25T03:11:16.679Z,8.00
2019-02-25T03:12:16.631Z,8.00
2019-02-25T03:13:16.623Z,8.00
2019-02-25T03:14:16.626Z,8.00
2019-02-25T03:15:16.597Z,8.00
2019-02-25T03:16:16.591Z,8.00
2019-02-25T03:17:16.746Z,8.00
2019-02-25T03:18:16.571Z,8.00
2019-02-25T03:19:16.562Z,8.00
2019-02-25T03:20:26.774Z,8.00
2019-02-25T03:21:16.530Z,8.00
2019-02-25T03:22:16.525Z,8.00
2019-02-25T03:23:16.556Z,8.00
2019-02-25T03:24:16.502Z,8.00
2019-02-25T03:25:16.500Z,8.00
2019-02-25T03:26:16.479Z,8.00
2019-02-25T03:27:16.463Z,8.00
2019-02-25T03:28:16.465Z,8.00
2019-02-25T03:29:16.481Z,8.00
2019-02-25T03:30:16.439Z,8.00
2019-02-25T03:31:16.424Z,8.00
2019-02-25T03:32:16.419Z,8.00
2019-02-25T03:33:16.426Z,8.00
2019-02-25T03:34:16.392Z,8.00
2019-02-25T03:35:16.454Z,8.00
2019-02-25T03:36:16.372Z,8.00
2019-02-25T03:37:16.359Z,8.00
2019-02-25T03:38:16.350Z,8.00
2019-02-25T03:39:16.351Z,8.00
2019-02-25T03:40:16.425Z,8.00
2019-02-25T03:41:16.330Z,8.00
2019-02-25T03:42:16.310Z,8.00
2019-02-25T03:43:16.301Z,8.00
2019-02-25T03:44:16.282Z,8.00
2019-02-25T03:45:16.282Z,8.00
2019-02-25T03:46:16.302Z,8.00
2019-02-25T03:47:16.253Z,8.00
2019-02-25T03:48:16.243Z,8.00
2019-02-25T03:49:16.225Z,8.00
2019-02-25T03:50:16.224Z,8.00
2019-02-25T03:51:28.351Z,8.00
2019-02-25T03:52:16.197Z,8.00
2019-02-25T03:53:16.189Z,8.00
2019-02-25T03:54:16.177Z,8.00
2019-02-25T03:55:16.188Z,8.00
2019-02-25T03:56:16.165Z,8.00
2019-02-25T03:57:16.334Z,8.00
2019-02-25T03:58:16.132Z,8.00
2019-02-25T03:59:16.129Z,8.00
2019-02-25T04:00:16.111Z,8.00
2019-02-25T04:01:16.096Z,8.00
2019-02-25T04:02:16.088Z,8.00
2019-02-25T04:03:16.082Z,8.00
2019-02-25T04:04:16.079Z,8.00
2019-02-25T04:05:16.057Z,8.00
2019-02-25T04:06:16.045Z,8.00
2019-02-25T04:07:16.034Z,8.00
2019-02-25T04:08:16.197Z,8.00
2019-02-25T04:09:16.010Z,8.00
2019-02-25T04:10:16.042Z,8.00
2019-02-25T04:11:15.986Z,8.00
2019-02-25T04:12:15.977Z,8.00
2019-02-25T04:13:15.970Z,8.00
2019-02-25T04:14:16.126Z,8.00
2019-02-25T04:15:15.951Z,8.00
2019-02-25T04:16:15.966Z,8.00
2019-02-25T04:17:15.922Z,8.00
2019-02-25T04:18:15.913Z,8.00
2019-02-25T04:19:15.900Z,8.00
2019-02-25T04:20:15.927Z,8.00
2019-02-25T04:21:15.879Z,8.00
2019-02-25T04:22:26.460Z,8.00
2019-02-25T04:23:15.859Z,8.00
2019-02-25T04:24:15.848Z,8.00
2019-02-25T04:25:15.871Z,8.00
2019-02-25T04:26:15.836Z,8.00
2019-02-25T04:27:15.815Z,8.00
2019-02-25T04:28:15.803Z,8.00
2019-02-25T04:29:15.811Z,8.00
2019-02-25T04:30:15.785Z,8.00
2019-02-25T04:31:15.782Z,8.00
2019-02-25T04:32:15.759Z,8.00
2019-02-25T04:33:15.750Z,8.00
2019-02-25T04:34:15.746Z,8.00
2019-02-25T04:35:15.727Z,8.00
2019-02-25T04:36:15.756Z,8.00
2019-02-25T04:37:15.703Z,8.00
2019-02-25T04:38:15.697Z,8.00
2019-02-25T04:39:15.689Z,8.00
2019-02-25T04:40:15.683Z,12.00
2019-02-25T04:41:15.928Z,12.00
2019-02-25T04:42:15.685Z,12.00
2019-02-25T04:43:15.647Z,8.00
2019-02-25T04:44:15.629Z,12.00
2019-02-25T04:45:15.622Z,12.00
2019-02-25T04:46:15.623Z,12.00
2019-02-25T04:47:15.601Z,12.00
2019-02-25T04:48:15.624Z,12.00
2019-02-25T04:49:15.575Z,16.00
2019-02-25T04:50:15.573Z,12.00
2019-02-25T04:51:15.579Z,16.00
2019-02-25T04:52:15.547Z,12.00
2019-02-25T04:53:25.900Z,12.00
2019-02-25T04:54:15.518Z,16.00
2019-02-25T04:55:15.513Z,16.00
2019-02-25T04:56:15.504Z,20.00
2019-02-25T04:57:15.488Z,20.00
2019-02-25T04:58:15.506Z,24.00
2019-02-25T04:59:15.502Z,24.00
2019-02-25T05:00:15.453Z,28.00
2019-02-25T05:01:15.449Z,32.00
2019-02-25T05:02:15.432Z,36.00
2019-02-25T05:03:15.420Z,40.00
2019-02-25T05:04:15.426Z,44.00
2019-02-25T05:05:15.425Z,48.00
2019-02-25T05:06:15.409Z,52.00
2019-02-25T05:07:15.379Z,56.00
2019-02-25T05:08:15.376Z,64.00
2019-02-25T05:09:15.355Z,68.00
2019-02-25T05:10:15.349Z,76.00
2019-02-25T05:11:15.369Z,84.00
2019-02-25T05:12:15.370Z,96.00
2019-02-25T05:13:15.319Z,108.00
2019-02-25T05:14:15.307Z,128.00
2019-02-25T05:15:15.290Z,144.00
2019-02-25T05:16:15.284Z,156.00
2019-02-25T05:17:15.276Z,172.00
2019-02-25T05:18:15.268Z,188.00
2019-02-25T05:19:15.249Z,196.00
2019-02-25T05:20:15.248Z,204.00
2019-02-25T05:21:15.228Z,220.00
2019-02-25T05:22:15.394Z,232.00
2019-02-25T05:23:15.200Z,244.00
2019-02-25T05:24:25.596Z,248.00
2019-02-25T05:25:15.181Z,260.00
2019-02-25T05:26:15.174Z,276.00
2019-02-25T05:27:15.161Z,292.00
2019-02-25T05:28:15.186Z,300.00
2019-02-25T05:29:15.151Z,308.00
2019-02-25T05:30:15.135Z,316.00
2019-02-25T05:31:15.116Z,336.00
2019-02-25T05:32:15.121Z,348.00
2019-02-25T05:33:15.092Z,364.00
2019-02-25T05:34:15.121Z,388.00
2019-02-25T05:35:15.078Z,408.00
2019-02-25T05:36:15.072Z,424.00
2019-02-25T05:37:15.061Z,444.00
2019-02-25T05:38:15.044Z,468.00
2019-02-25T05:39:15.032Z,492.00
2019-02-25T05:40:15.034Z,504.00
2019-02-25T05:41:15.013Z,516.00
2019-02-25T05:42:15.003Z,544.00
2019-02-25T05:43:14.998Z,576.00
2019-02-25T05:44:14.977Z,596.00
2019-02-25T05:45:15.014Z,624.00
2019-02-25T05:46:14.953Z,648.00
2019-02-25T05:47:15.888Z,676.00
2019-02-25T05:48:14.928Z,684.00
2019-02-25T05:49:14.934Z,672.00
2019-02-25T05:50:14.919Z,672.00
2019-02-25T05:51:14.937Z,672.00
2019-02-25T05:52:14.889Z,692.00
2019-02-25T05:53:14.880Z,736.00
2019-02-25T05:54:14.871Z,816.00
2019-02-25T05:55:25.718Z,916.00
2019-02-25T05:56:14.848Z,1012.00
2019-02-25T05:57:14.846Z,1084.00
2019-02-25T05:58:14.825Z,1160.00
2019-02-25T05:59:14.810Z,1204.00
2019-02-25T06:00:14.824Z,1272.00
2019-02-25T06:01:14.792Z,1328.00
2019-02-25T06:02:14.797Z,1388.00
2019-02-25T06:03:14.785Z,1452.00
2019-02-25T06:04:14.753Z,1496.00
2019-02-25T06:05:14.787Z,1536.00
2019-02-25T06:06:14.741Z,1636.00
2019-02-25T06:07:14.727Z,1672.00
2019-02-25T06:08:14.771Z,1660.00
2019-02-25T06:09:14.702Z,1656.00
2019-02-25T06:10:15.404Z,1676.00
2019-02-25T06:11:14.682Z,1728.00
2019-02-25T06:12:14.669Z,1768.00
2019-02-25T06:13:14.661Z,1740.00
2019-02-25T06:14:14.699Z,1776.00
2019-02-25T06:15:14.639Z,1884.00
2019-02-25T06:16:14.623Z,1964.00
2019-02-25T06:17:14.620Z,2008.00
2019-02-25T06:18:14.604Z,2108.00
2019-02-25T06:19:14.591Z,2308.00
2019-02-25T06:20:14.645Z,2504.00
2019-02-25T06:21:14.570Z,2644.00
2019-02-25T06:22:14.559Z,2576.00
2019-02-25T06:23:14.551Z,2680.00
2019-02-25T06:24:14.543Z,2760.00
2019-02-25T06:25:14.548Z,2868.00
2019-02-25T06:26:25.115Z,2992.00
2019-02-25T06:27:14.509Z,3088.00
2019-02-25T06:28:14.501Z,3264.00
2019-02-25T06:29:14.483Z,3296.00
2019-02-25T06:30:14.470Z,3364.00
2019-02-25T06:31:14.484Z,3320.00
2019-02-25T06:32:14.624Z,3324.00
2019-02-25T06:33:14.442Z,3456.00
2019-02-25T06:34:14.444Z,3680.00
2019-02-25T06:35:14.421Z,3644.00
2019-02-25T06:36:14.411Z,3460.00
2019-02-25T06:37:14.397Z,3356.00
2019-02-25T06:38:14.391Z,3712.00
2019-02-25T06:39:14.385Z,4324.00
2019-02-25T06:40:15.588Z,4408.00
2019-02-25T06:41:14.357Z,4160.00
2019-02-25T06:42:14.340Z,3892.00
2019-02-25T06:43:14.372Z,3856.00
2019-02-25T06:44:14.318Z,3896.00
2019-02-25T06:45:14.319Z,3920.00
2019-02-25T06:46:14.306Z,4068.00
2019-02-25T06:47:14.290Z,3960.00
2019-02-25T06:48:14.282Z,3824.00
2019-02-25T06:49:14.308Z,3824.00
2019-02-25T06:50:14.261Z,3760.00
2019-02-25T06:51:14.251Z,3820.00
2019-02-25T06:52:14.235Z,3872.00
2019-02-25T06:53:14.228Z,4124.00
2019-02-25T06:54:14.216Z,4140.00
2019-02-25T06:55:14.244Z,4336.00
2019-02-25T06:56:14.189Z,4248.00
2019-02-25T06:57:26.114Z,4088.00
2019-02-25T06:58:14.169Z,4236.00
2019-02-25T06:59:14.162Z,4400.00
2019-02-25T07:00:14.151Z,4496.00
2019-02-25T07:01:14.182Z,4544.00
2019-02-25T07:02:14.129Z,4656.00
2019-02-25T07:03:14.121Z,4756.00
2019-02-25T07:04:14.114Z,4896.00
2019-02-25T07:05:14.095Z,5204.00
2019-02-25T07:06:14.085Z,5344.00
2019-02-25T07:07:14.107Z,5400.00
2019-02-25T07:08:14.059Z,5952.00
2019-02-25T07:09:14.069Z,6320.00
2019-02-25T07:10:14.045Z,6552.00
2019-02-25T07:11:14.036Z,6708.00
2019-02-25T07:12:14.017Z,6928.00
2019-02-25T07:13:14.049Z,7024.00
2019-02-25T07:14:13.995Z,6848.00
2019-02-25T07:15:13.990Z,6524.00
2019-02-25T07:16:14.956Z,6184.00
2019-02-25T07:17:13.964Z,5888.00
2019-02-25T07:18:13.957Z,5976.00
2019-02-25T07:19:13.959Z,6096.00
2019-02-25T07:20:13.935Z,6000.00
2019-02-25T07:21:13.929Z,6228.00
2019-02-25T07:22:13.914Z,6228.00
2019-02-25T07:23:13.898Z,6368.00
2019-02-25T07:24:13.891Z,6496.00
2019-02-25T07:25:13.914Z,6356.00
2019-02-25T07:26:13.870Z,6292.00
2019-02-25T07:27:13.872Z,6212.00
2019-02-25T07:28:24.931Z,6240.00
2019-02-25T07:29:13.841Z,6256.00
2019-02-25T07:30:13.825Z,6172.00
2019-02-25T07:31:13.853Z,6264.00
2019-02-25T07:32:13.801Z,6236.00
2019-02-25T07:33:13.804Z,6072.00
2019-02-25T07:34:13.785Z,5816.00
2019-02-25T07:35:13.771Z,5812.00
2019-02-25T07:36:13.771Z,5872.00
2019-02-25T07:37:13.767Z,5688.00
2019-02-25T07:38:13.741Z,5532.00
2019-02-25T07:39:13.732Z,5584.00
2019-02-25T07:40:13.718Z,5672.00
2019-02-25T07:41:13.711Z,5800.00
2019-02-25T07:42:13.695Z,6188.00
2019-02-25T07:43:15.388Z,6552.00
2019-02-25T07:44:13.678Z,6680.00
2019-02-25T07:45:13.666Z,6604.00
2019-02-25T07:46:13.650Z,6648.00
2019-02-25T07:47:13.646Z,6920.00
2019-02-25T07:48:13.639Z,7496.00
2019-02-25T07:49:13.636Z,8088.00
2019-02-25T07:50:13.610Z,8084.00
2019-02-25T07:51:13.598Z,7704.00
2019-02-25T07:52:13.588Z,7468.00
2019-02-25T07:53:13.579Z,6956.00
2019-02-25T07:54:13.603Z,6792.00
2019-02-25T07:55:13.553Z,7012.00
2019-02-25T07:56:13.548Z,7064.00
2019-02-25T07:57:13.536Z,6772.00
2019-02-25T07:58:13.523Z,6744.00
2019-02-25T07:59:24.556Z,6800.00
2019-02-25T08:00:13.502Z,6932.00
2019-02-25T08:01:13.494Z,7152.00
2019-02-25T08:02:13.483Z,7120.00
2019-02-25T08:03:13.475Z,7016.00
2019-02-25T08:04:13.455Z,7012.00
2019-02-25T08:05:13.491Z,6880.00
2019-02-25T08:06:13.434Z,6892.00
2019-02-25T08:07:13.426Z,7048.00
2019-02-25T08:08:13.423Z,6860.00
2019-02-25T08:09:13.405Z,6720.00
2019-02-25T08:10:13.393Z,6856.00
2019-02-25T08:11:13.421Z,6804.00
2019-02-25T08:12:13.374Z,6640.00
2019-02-25T08:13:13.370Z,6648.00
2019-02-25T08:14:13.351Z,6656.00
2019-02-25T08:15:13.348Z,6488.00
2019-02-25T08:16:13.330Z,6448.00
2019-02-25T08:17:13.328Z,6428.00
2019-02-25T08:18:13.350Z,6328.00
2019-02-25T08:19:13.300Z,6412.00
2019-02-25T08:20:13.290Z,6544.00
2019-02-25T08:21:13.282Z,6760.00
2019-02-25T08:22:14.009Z,6872.00
2019-02-25T08:23:13.264Z,7036.00
2019-02-25T08:24:13.261Z,7392.00
2019-02-25T08:25:13.241Z,7776.00
2019-02-25T08:26:13.225Z,7752.00
2019-02-25T08:27:13.210Z,7664.00
2019-02-25T08:28:13.215Z,7584.00
2019-02-25T08:29:13.192Z,7840.00
2019-02-25T08:30:24.057Z,8088.00
2019-02-25T08:31:13.171Z,7820.00
2019-02-25T08:32:13.157Z,8296.00
2019-02-25T08:33:13.144Z,10076.00
2019-02-25T08:34:18.761Z,9556.00
2019-02-25T08:35:14.133Z,9088.00
2019-02-25T08:36:13.119Z,8908.00
2019-02-25T08:37:13.099Z,8844.00
2019-02-25T08:38:13.099Z,9332.00
2019-02-25T08:39:13.084Z,9344.00
2019-02-25T08:40:13.073Z,8816.00
2019-02-25T08:41:13.068Z,8520.00
2019-02-25T08:42:13.089Z,8708.00
2019-02-25T08:43:13.039Z,9548.00
2019-02-25T08:44:13.039Z,9700.00
2019-02-25T08:45:13.016Z,9360.00
2019-02-25T08:46:13.009Z,8964.00
2019-02-25T08:47:13.004Z,9004.00
2019-02-25T08:48:13.023Z,9476.00
2019-02-25T08:49:12.985Z,9168.00
2019-02-25T08:50:12.976Z,9352.00
2019-02-25T08:51:12.972Z,10644.00
2019-02-25T08:52:12.938Z,10704.00
2019-02-25T08:53:12.930Z,11664.00
2019-02-25T08:54:12.961Z,12116.00
2019-02-25T08:55:12.907Z,12436.00
2019-02-25T08:56:12.909Z,13920.00
2019-02-25T08:57:12.886Z,16352.00
2019-02-25T08:58:12.875Z,17408.00
2019-02-25T08:59:12.867Z,16384.00
2019-02-25T09:00:13.040Z,15860.00
2019-02-25T09:01:22.832Z,18272.00
2019-02-25T09:02:12.832Z,19200.00
2019-02-25T09:03:12.823Z,50048.00
2019-02-25T09:04:12.812Z,33344.00
2019-02-25T09:05:12.939Z,26240.00
2019-02-25T09:06:12.829Z,35328.00
2019-02-25T09:07:12.784Z,57504.00
2019-02-25T09:08:12.770Z,35936.00
2019-02-25T09:09:12.756Z,64928.00
2019-02-25T09:10:13.524Z,55456.00
2019-02-25T09:11:14.398Z,87040.00
2019-02-25T09:12:12.895Z,94592.00
2019-02-25T09:13:12.711Z,59488.00
2019-02-25T09:14:12.697Z,27552.00
2019-02-25T09:15:12.695Z,63040.00
2019-02-25T09:16:12.675Z,39680.00
2019-02-25T09:17:12.676Z,82688.00
2019-02-25T09:18:12.693Z,90816.00
2019-02-25T09:19:12.643Z,91392.00
2019-02-25T09:20:12.634Z,77600.00
2019-02-25T09:21:12.627Z,33984.00
2019-02-25T09:22:12.618Z,87040.00
2019-02-25T09:23:12.600Z,48192.00
2019-02-25T09:24:12.597Z,41536.00
2019-02-25T09:25:12.582Z,30272.00
2019-02-25T09:26:12.572Z,39456.00
2019-02-25T09:27:12.563Z,25920.00
2019-02-25T09:28:12.665Z,30112.00
2019-02-25T09:29:12.572Z,41024.00
2019-02-25T09:30:12.526Z,42240.00
2019-02-25T09:31:12.510Z,65280.00
2019-02-25T09:32:22.573Z,41504.00
2019-02-25T09:33:12.493Z,30976.00
2019-02-25T09:34:12.483Z,37856.00
2019-02-25T09:35:12.504Z,42432.00
2019-02-25T09:36:12.466Z,32864.00
2019-02-25T09:37:12.448Z,41120.00
2019-02-25T09:38:12.435Z,32064.00
2019-02-25T09:39:12.425Z,49664.00
2019-02-25T09:40:12.416Z,54848.00
2019-02-25T09:41:12.435Z,41152.00
2019-02-25T09:42:12.392Z,39904.00
2019-02-25T09:43:12.381Z,72832.00
2019-02-25T09:44:12.372Z,28960.00
2019-02-25T09:45:12.356Z,75936.00
2019-02-25T09:46:12.350Z,97344.00
2019-02-25T09:47:12.372Z,93312.00
2019-02-25T09:48:12.324Z,65792.00
2019-02-25T09:49:12.313Z,32800.00
2019-02-25T09:50:12.301Z,73024.00
2019-02-25T09:51:12.304Z,91424.00
2019-02-25T09:52:12.285Z,94528.00
2019-02-25T09:53:12.317Z,90080.00
2019-02-25T09:54:12.259Z,94624.00
2019-02-25T09:55:12.246Z,90944.00
2019-02-25T09:56:12.235Z,92672.00
2019-02-25T09:57:12.230Z,94656.00
2019-02-25T09:58:12.214Z,96160.00
2019-02-25T09:59:12.245Z,94912.00
2019-02-25T10:00:12.198Z,86560.00
2019-02-25T10:01:12.189Z,93056.00
2019-02-25T10:02:12.176Z,87008.00
2019-02-25T10:03:23.154Z,98080.00
2019-02-25T10:04:12.157Z,96576.00
2019-02-25T10:05:12.150Z,99776.00
2019-02-25T10:06:12.987Z,67808.00
2019-02-25T10:07:12.136Z,35232.00
2019-02-25T10:08:12.111Z,73120.00
2019-02-25T10:09:12.101Z,26496.00
2019-02-25T10:10:12.142Z,103008.00
2019-02-25T10:11:12.077Z,107552.00
2019-02-25T10:12:12.068Z,95008.00
2019-02-25T10:13:12.055Z,93728.00
2019-02-25T10:14:12.054Z,34944.00
2019-02-25T10:15:12.034Z,43168.00
2019-02-25T10:16:12.201Z,52608.00
2019-02-25T10:17:12.018Z,61472.00
2019-02-25T10:18:12.001Z,74880.00
2019-02-25T10:19:11.996Z,93184.00
2019-02-25T10:20:11.987Z,103136.00
2019-02-25T10:21:11.976Z,96032.00
2019-02-25T10:22:11.980Z,97152.00
2019-02-25T10:23:11.950Z,97120.00
2019-02-25T10:24:11.944Z,96768.00
2019-02-25T10:25:11.931Z,99520.00
2019-02-25T10:26:11.925Z,98656.00
2019-02-25T10:27:11.908Z,95872.00
2019-02-25T10:28:19.236Z,98880.00
2019-02-25T10:29:11.894Z,97792.00
2019-02-25T10:30:11.884Z,99520.00
2019-02-25T10:31:13.059Z,100896.00
2019-02-25T10:32:11.863Z,94976.00
2019-02-25T10:33:11.850Z,94720.00
2019-02-25T10:34:19.339Z,100512.00
2019-02-25T10:35:11.826Z,99712.00
2019-02-25T10:36:11.816Z,88128.00
2019-02-25T10:37:13.120Z,101760.00
2019-02-25T10:38:11.794Z,103488.00
2019-02-25T10:39:13.039Z,99872.00
2019-02-25T10:40:13.245Z,102976.00
2019-02-25T10:41:11.770Z,101280.00
2019-02-25T10:42:11.767Z,116480.00
2019-02-25T10:43:11.753Z,109120.00
2019-02-25T10:44:11.740Z,75168.00
2019-02-25T10:45:13.509Z,42848.00
2019-02-25T10:46:13.848Z,129280.00
2019-02-25T10:47:13.534Z,55296.00
2019-02-25T10:48:11.701Z,79264.00
2019-02-25T10:49:11.884Z,49952.00
2019-02-25T10:50:11.681Z,45696.00
2019-02-25T10:51:13.567Z,40576.00
2019-02-25T10:52:12.947Z,94816.00
2019-02-25T10:53:13.571Z,36512.00
2019-02-25T10:54:11.642Z,40320.00
2019-02-25T10:55:11.622Z,30976.00
2019-02-25T10:56:11.617Z,24288.00
2019-02-25T10:57:11.616Z,22624.00
2019-02-25T10:58:11.594Z,23776.00
2019-02-25T10:59:11.579Z,22432.00
2019-02-25T11:00:12.139Z,20864.00
2019-02-25T11:01:13.510Z,18208.00
2019-02-25T11:02:13.699Z,17056.00
2019-02-25T11:03:12.962Z,15720.00
2019-02-25T11:04:11.524Z,14936.00
2019-02-25T11:05:23.284Z,14756.00
2019-02-25T11:06:11.499Z,15764.00
2019-02-25T11:07:11.494Z,17248.00
2019-02-25T11:08:13.714Z,16288.00
2019-02-25T11:09:13.292Z,20064.00
2019-02-25T11:10:12.012Z,15356.00
2019-02-25T11:11:11.445Z,17216.00
2019-02-25T11:12:11.452Z,13564.00
2019-02-25T11:13:11.427Z,12352.00
2019-02-25T11:14:11.453Z,12544.00
2019-02-25T11:15:12.057Z,12376.00
2019-02-25T11:16:11.976Z,10880.00
2019-02-25T11:17:11.390Z,10604.00
2019-02-25T11:18:11.368Z,11064.00
2019-02-25T11:19:11.366Z,12224.00
2019-02-25T11:20:11.359Z,13628.00
2019-02-25T11:21:11.349Z,13276.00
2019-02-25T11:22:12.119Z,13076.00
2019-02-25T11:23:12.818Z,12120.00
2019-02-25T11:24:11.309Z,11600.00
2019-02-25T11:25:11.335Z,11416.00
2019-02-25T11:26:11.281Z,13404.00
2019-02-25T11:27:11.270Z,21984.00
2019-02-25T11:28:22.839Z,16608.00
2019-02-25T11:29:13.780Z,21504.00
2019-02-25T11:30:12.099Z,21728.00
2019-02-25T11:31:11.265Z,25312.00
2019-02-25T11:32:11.217Z,23872.00
2019-02-25T11:33:11.205Z,54304.00
2019-02-25T11:34:11.197Z,84096.00
2019-02-25T11:35:12.929Z,40096.00
2019-02-25T11:36:22.323Z,50592.00
2019-02-25T11:37:11.165Z,47680.00
2019-02-25T11:38:11.148Z,97024.00
2019-02-25T11:39:11.141Z,97792.00
2019-02-25T11:40:11.129Z,102720.00
2019-02-25T11:41:11.366Z,105472.00
2019-02-25T11:42:13.518Z,98688.00
2019-02-25T11:43:13.232Z,98208.00
2019-02-25T11:44:11.084Z,94624.00
2019-02-25T11:45:11.078Z,73600.00
2019-02-25T11:46:11.084Z,90656.00
2019-02-25T11:47:11.061Z,95488.00
2019-02-25T11:48:11.081Z,101120.00
2019-02-25T11:49:11.040Z,94144.00
2019-02-25T11:50:11.027Z,90752.00
2019-02-25T11:51:11.012Z,92416.00
2019-02-25T11:52:11.016Z,93056.00
2019-02-25T11:53:10.993Z,86144.00
2019-02-25T11:54:11.022Z,93856.00
2019-02-25T11:55:10.970Z,96704.00
2019-02-25T11:56:10.965Z,90880.00
2019-02-25T11:57:10.958Z,97312.00
2019-02-25T11:58:10.940Z,100000.00
2019-02-25T11:59:10.928Z,92128.00
2019-02-25T12:00:10.966Z,95072.00
2019-02-25T12:01:10.924Z,94176.00
2019-02-25T12:02:10.907Z,83904.00
2019-02-25T12:03:10.892Z,96512.00
2019-02-25T12:04:10.908Z,92320.00
2019-02-25T12:05:10.867Z,97088.00
2019-02-25T12:06:10.913Z,101792.00
2019-02-25T12:07:21.390Z,98752.00
2019-02-25T12:08:10.839Z,100832.00
2019-02-25T12:09:10.824Z,101184.00
2019-02-25T12:10:10.820Z,78080.00
2019-02-25T12:11:10.804Z,100768.00
2019-02-25T12:12:10.818Z,97504.00
2019-02-25T12:13:10.799Z,96384.00
2019-02-25T12:14:10.786Z,94048.00
2019-02-25T12:15:10.767Z,93152.00
2019-02-25T12:16:10.761Z,96224.00
2019-02-25T12:17:10.762Z,93056.00
2019-02-25T12:18:10.849Z,95488.00
2019-02-25T12:19:17.793Z,94144.00
2019-02-25T12:20:11.723Z,88896.00
2019-02-25T12:21:10.723Z,82208.00
2019-02-25T12:22:10.695Z,102784.00
2019-02-25T12:23:10.691Z,101504.00
2019-02-25T12:24:10.718Z,75680.00
2019-02-25T12:25:10.668Z,37824.00
2019-02-25T12:26:10.663Z,50464.00
2019-02-25T12:27:11.893Z,37536.00